createdAt,value
2023-04-02T00:01:16.543Z,48.72
2023-04-02T00:04:02.846Z,48.64
2023-04-02T00:06:35.913Z,48.74
2023-04-02T00:09:23.168Z,48.85
2023-04-02T00:11:51.530Z,48.80
2023-04-02T00:14:24.218Z,48.72
2023-04-02T00:16:52.103Z,48.83
2023-04-02T00:19:25.573Z,48.60
2023-04-02T00:21:54.251Z,48.52
2023-04-02T00:24:22.137Z,48.83
2023-04-02T00:26:49.297Z,48.58
2023-04-02T00:29:17.485Z,48.61
2023-04-02T00:31:46.128Z,48.54
2023-04-02T00:34:19.050Z,48.62
2023-04-02T00:36:46.552Z,48.60
2023-04-02T00:39:20.239Z,48.56
2023-04-02T00:41:47.089Z,48.55
2023-04-02T00:44:15.881Z,48.46
2023-04-02T00:46:44.574Z,48.49
2023-04-02T00:49:19.045Z,48.75
2023-04-02T00:51:49.955Z,48.75
2023-04-02T00:54:21.328Z,48.54
2023-04-02T00:56:51.931Z,48.42
2023-04-02T00:59:24.662Z,48.44
2023-04-02T01:01:53.366Z,48.56
2023-04-02T01:04:32.507Z,48.58
2023-04-02T01:07:02.442Z,48.48
2023-04-02T01:09:44.632Z,48.48
2023-04-02T01:12:28.696Z,48.40
2023-04-02T01:15:04.433Z,48.71
2023-04-02T01:17:44.877Z,48.53
2023-04-02T01:20:33.385Z,48.37
2023-04-02T01:23:04.172Z,48.45
2023-04-02T01:25:40.645Z,48.30
2023-04-02T01:28:15.547Z,48.32
2023-04-02T01:30:45.597Z,48.38
2023-04-02T01:33:12.132Z,48.33
2023-04-02T01:35:44.613Z,48.31
2023-04-02T01:38:17.240Z,48.27
2023-04-02T01:40:49.463Z,48.35
2023-04-02T01:43:22.071Z,48.32
2023-04-02T01:45:50.378Z,48.13
2023-04-02T01:48:18.845Z,48.17
2023-04-02T01:50:48.579Z,48.19
2023-04-02T01:53:16.779Z,48.25
2023-04-02T01:55:45.444Z,48.35
2023-04-02T01:58:14.583Z,48.27
2023-04-02T02:00:46.008Z,48.47
2023-04-02T02:03:14.215Z,48.47
2023-04-02T02:05:40.997Z,48.23
2023-04-02T02:08:22.621Z,48.27
2023-04-02T02:10:49.552Z,48.43
2023-04-02T02:13:16.406Z,48.53
2023-04-02T02:15:44.170Z,48.12
2023-04-02T02:18:12.927Z,48.29
2023-04-02T02:20:41.814Z,48.36
2023-04-02T02:23:12.262Z,48.23
2023-04-02T02:25:39.838Z,48.10
2023-04-02T02:28:09.602Z,48.16
2023-04-02T02:30:38.904Z,48.07
2023-04-02T02:33:10.962Z,47.95
2023-04-02T02:35:44.373Z,48.29
2023-04-02T02:38:31.952Z,48.21
2023-04-02T02:41:02.047Z,48.30
2023-04-02T02:43:29.011Z,48.12
2023-04-02T02:45:56.559Z,48.14
2023-04-02T02:48:27.276Z,48.19
2023-04-02T02:50:56.371Z,47.98
2023-04-02T02:53:24.340Z,48.08
2023-04-02T02:55:55.617Z,47.98
2023-04-02T02:58:25.252Z,48.04
2023-04-02T03:00:51.972Z,47.91
2023-04-02T03:03:22.010Z,48.06
2023-04-02T03:05:52.639Z,48.01
2023-04-02T03:08:27.569Z,47.92
2023-04-02T03:11:00.229Z,47.75
2023-04-02T03:13:30.422Z,47.86
2023-04-02T03:16:03.485Z,47.93
2023-04-02T03:18:38.508Z,47.84
2023-04-02T03:21:17.711Z,47.97
2023-04-02T03:23:48.930Z,47.74
2023-04-02T03:26:18.936Z,47.88
2023-04-02T03:28:50.047Z,47.68
2023-04-02T03:31:22.621Z,47.59
2023-04-02T03:33:54.934Z,47.74
2023-04-02T03:36:28.270Z,47.61
2023-04-02T03:39:01.853Z,47.68
2023-04-02T03:41:34.777Z,47.63
2023-04-02T03:44:06.160Z,47.57
2023-04-02T03:46:36.846Z,47.73
2023-04-02T03:49:07.645Z,47.74
2023-04-02T03:51:40.069Z,47.54
2023-04-02T03:54:13.739Z,47.51
2023-04-02T03:56:40.378Z,47.42
2023-04-02T03:59:14.802Z,47.65
2023-04-02T04:01:45.096Z,47.62
2023-04-02T04:04:16.993Z,47.41
2023-04-02T04:06:49.046Z,47.39
2023-04-02T04:09:23.108Z,47.38
2023-04-02T04:11:53.679Z,47.44
2023-04-02T04:14:28.139Z,47.21
2023-04-02T04:17:01.493Z,47.47
2023-04-02T04:19:34.426Z,47.27
2023-04-02T04:22:09.742Z,47.38
2023-04-02T04:24:37.581Z,47.49
2023-04-02T04:27:09.306Z,47.41
2023-04-02T04:29:41.034Z,47.10
2023-04-02T04:32:16.850Z,47.30
2023-04-02T04:34:46.811Z,47.27
2023-04-02T04:37:18.633Z,47.21
2023-04-02T04:39:50.934Z,47.24
2023-04-02T04:42:22.593Z,47.23
2023-04-02T04:44:55.265Z,47.24
2023-04-02T04:47:28.938Z,47.26
2023-04-02T04:49:58.117Z,47.05
2023-04-02T04:52:26.563Z,47.37
2023-04-02T04:54:54.651Z,47.24
2023-04-02T04:57:30.240Z,47.32
2023-04-02T05:00:02.975Z,47.24
2023-04-02T05:02:33.169Z,47.13
2023-04-02T05:05:02.214Z,47.32
2023-04-02T05:07:31.581Z,47.13
2023-04-02T05:10:06.405Z,47.25
2023-04-02T05:12:37.781Z,47.35
2023-04-02T05:15:11.078Z,47.37
2023-04-02T05:17:46.688Z,47.07
2023-04-02T05:20:18.717Z,47.15
2023-04-02T05:22:50.365Z,47.20
2023-04-02T05:25:23.238Z,47.19
2023-04-02T05:27:54.407Z,47.19
2023-04-02T05:30:42.913Z,47.09
2023-04-02T05:33:21.238Z,47.31
2023-04-02T05:35:56.020Z,47.11
2023-04-02T05:38:26.367Z,46.85
2023-04-02T05:41:00.403Z,47.25
2023-04-02T05:43:29.997Z,47.06
2023-04-02T05:46:01.864Z,47.00
2023-04-02T05:48:34.781Z,47.27
2023-04-02T05:51:03.928Z,47.07
2023-04-02T05:53:34.051Z,46.95
2023-04-02T05:56:07.601Z,47.16
2023-04-02T05:58:38.079Z,47.12
2023-04-02T06:01:14.165Z,47.29
2023-04-02T06:03:45.353Z,46.96
2023-04-02T06:06:19.174Z,47.11
2023-04-02T06:08:55.238Z,47.10
2023-04-02T06:11:27.991Z,47.00
2023-04-02T06:13:54.572Z,47.01
2023-04-02T06:16:25.149Z,46.89
2023-04-02T06:18:51.716Z,46.78
2023-04-02T06:21:20.454Z,46.81
2023-04-02T06:23:53.220Z,46.76
2023-04-02T06:26:25.650Z,46.66
2023-04-02T06:28:57.999Z,46.94
2023-04-02T06:31:33.256Z,47.02
2023-04-02T06:33:59.855Z,46.81
2023-04-02T06:36:27.726Z,46.79
2023-04-02T06:38:58.809Z,46.70
2023-04-02T06:41:26.592Z,46.55
2023-04-02T06:43:56.438Z,46.65
2023-04-02T06:46:28.598Z,46.52
2023-04-02T06:49:03.084Z,46.53
2023-04-02T06:51:32.582Z,46.74
2023-04-02T06:53:59.080Z,46.56
2023-04-02T06:56:38.003Z,46.50
2023-04-02T06:59:04.528Z,46.66
2023-04-02T07:01:36.116Z,46.60
2023-04-02T07:04:02.959Z,46.56
2023-04-02T07:06:29.580Z,46.46
2023-04-02T07:08:56.083Z,46.66
2023-04-02T07:11:22.787Z,46.45
2023-04-02T07:13:50.795Z,46.62
2023-04-02T07:16:19.716Z,46.47
2023-04-02T07:18:47.406Z,46.42
2023-04-02T07:21:14.091Z,46.53
2023-04-02T07:23:40.683Z,46.53
2023-04-02T07:26:08.616Z,46.45
2023-04-02T07:28:35.221Z,46.83
2023-04-02T07:31:03.061Z,46.62
2023-04-02T07:33:30.498Z,46.57
2023-04-02T07:35:58.188Z,46.43
2023-04-02T07:38:24.829Z,46.51
2023-04-02T07:40:51.377Z,46.52
2023-04-02T07:43:17.872Z,46.42
2023-04-02T07:45:44.349Z,46.52
2023-04-02T07:48:13.893Z,46.45
2023-04-02T07:50:40.741Z,46.93
2023-04-02T07:53:07.361Z,46.71
2023-04-02T07:55:34.258Z,46.57
2023-04-02T07:58:00.920Z,46.79
2023-04-02T08:00:27.907Z,46.82
2023-04-02T08:02:54.590Z,46.93
2023-04-02T08:05:22.589Z,47.00
2023-04-02T08:07:52.912Z,46.88
2023-04-02T08:10:19.507Z,46.81
2023-04-02T08:12:45.958Z,47.13
2023-04-02T08:15:15.216Z,46.95
2023-04-02T08:17:41.802Z,47.22
2023-04-02T08:20:14.160Z,47.04
2023-04-02T08:22:42.123Z,46.95
2023-04-02T08:25:09.625Z,47.01
2023-04-02T08:27:36.193Z,47.04
2023-04-02T08:30:03.562Z,47.17
2023-04-02T08:32:30.123Z,47.15
2023-04-02T08:34:56.603Z,47.03
2023-04-02T08:37:23.081Z,47.06
2023-04-02T08:39:50.866Z,47.29
2023-04-02T08:42:26.731Z,46.82
2023-04-02T08:45:10.882Z,47.17
2023-04-02T08:47:48.985Z,46.80
2023-04-02T08:50:27.921Z,47.25
2023-04-02T08:52:54.955Z,47.00
2023-04-02T08:55:34.813Z,47.30
2023-04-02T08:58:09.449Z,47.25
2023-04-02T09:00:39.151Z,46.93
2023-04-02T09:03:10.437Z,47.25
2023-04-02T09:05:40.666Z,47.21
2023-04-02T09:08:17.264Z,47.05
2023-04-02T09:10:51.404Z,47.18
2023-04-02T09:13:22.725Z,46.99
2023-04-02T09:15:52.586Z,47.00
2023-04-02T09:18:20.391Z,47.02
2023-04-02T09:20:47.396Z,47.18
2023-04-02T09:23:16.823Z,47.17
2023-04-02T09:25:57.429Z,47.11
2023-04-02T09:28:28.055Z,47.36
2023-04-02T09:31:01.714Z,47.07
2023-04-02T09:33:42.981Z,47.30
2023-04-02T09:36:19.238Z,47.17
2023-04-02T09:38:58.829Z,47.32
2023-04-02T09:41:29.109Z,47.16
2023-04-02T09:44:12.740Z,47.22
2023-04-02T09:46:48.895Z,47.08
2023-04-02T09:49:17.301Z,47.11
2023-04-02T09:51:43.755Z,47.21
2023-04-02T09:54:15.766Z,47.15
2023-04-02T09:57:02.266Z,47.36
2023-04-02T09:59:28.997Z,47.37
2023-04-02T10:02:00.593Z,47.32
2023-04-02T10:04:37.409Z,47.39
2023-04-02T10:07:05.462Z,47.36
2023-04-02T10:09:34.068Z,47.36
2023-04-02T10:12:04.880Z,47.29
2023-04-02T10:14:35.218Z,47.42
2023-04-02T10:17:08.260Z,47.32
2023-04-02T10:19:37.817Z,47.19
2023-04-02T10:22:11.091Z,47.33
2023-04-02T10:24:37.666Z,47.33
2023-04-02T10:27:16.695Z,47.38
2023-04-02T10:29:53.489Z,47.23
2023-04-02T10:32:24.566Z,47.42
2023-04-02T10:34:57.902Z,47.29
2023-04-02T10:37:53.679Z,47.56
2023-04-02T10:40:25.620Z,47.38
2023-04-02T10:43:02.786Z,47.56
2023-04-02T10:45:42.064Z,47.45
2023-04-02T10:48:20.082Z,47.39
2023-04-02T10:50:52.714Z,47.49
2023-04-02T10:53:23.884Z,47.48
2023-04-02T10:55:55.169Z,47.55
2023-04-02T10:58:26.288Z,47.52
2023-04-02T11:00:58.500Z,47.47
2023-04-02T11:03:32.238Z,47.29
2023-04-02T11:06:02.261Z,47.38
2023-04-02T11:08:38.365Z,47.51
2023-04-02T11:11:10.904Z,47.64
2023-04-02T11:13:46.640Z,47.50
2023-04-02T11:16:13.750Z,47.47
2023-04-02T11:18:40.252Z,47.50
2023-04-02T11:21:07.009Z,47.25
2023-04-02T11:23:39.664Z,47.38
2023-04-02T11:26:26.045Z,47.48
2023-04-02T11:29:07.131Z,47.32
2023-04-02T11:31:34.267Z,47.37
2023-04-02T11:34:00.888Z,47.52
2023-04-02T11:36:47.185Z,47.60
2023-04-02T11:39:17.479Z,47.55
2023-04-02T11:42:00.424Z,47.52
2023-04-02T11:44:28.420Z,47.54
2023-04-02T11:47:15.831Z,47.56
2023-04-02T11:49:57.954Z,47.48
2023-04-02T11:52:29.194Z,47.46
2023-04-02T11:54:58.634Z,47.71
2023-04-02T11:57:37.237Z,47.54
2023-04-02T12:00:27.185Z,47.27
2023-04-02T12:03:13.132Z,47.68
2023-04-02T12:05:47.940Z,47.58
2023-04-02T12:08:29.118Z,47.50
2023-04-02T12:10:58.048Z,47.55
2023-04-02T12:13:44.305Z,47.53
2023-04-02T12:16:13.073Z,47.57
2023-04-02T12:18:43.016Z,47.49
2023-04-02T12:21:15.685Z,47.42
2023-04-02T12:23:46.471Z,47.37
2023-04-02T12:26:27.692Z,47.35
2023-04-02T12:28:54.148Z,47.37
2023-04-02T12:31:24.248Z,47.43
2023-04-02T12:33:52.633Z,47.38
2023-04-02T12:36:21.258Z,47.56
2023-04-02T12:38:50.423Z,47.21
2023-04-02T12:41:22.203Z,47.46
2023-04-02T12:43:57.201Z,47.38
2023-04-02T12:46:25.145Z,47.30
2023-04-02T12:48:51.962Z,47.13
2023-04-02T12:51:18.692Z,47.11
2023-04-02T12:53:50.239Z,47.13
2023-04-02T12:56:19.196Z,47.26
2023-04-02T12:58:53.147Z,47.17
2023-04-02T13:01:20.529Z,47.22
2023-04-02T13:04:04.670Z,47.33
2023-04-02T13:06:31.534Z,47.11
2023-04-02T13:08:59.953Z,47.30
2023-04-02T13:11:35.409Z,47.25
2023-04-02T13:14:03.347Z,47.18
2023-04-02T13:16:34.647Z,47.31
2023-04-02T13:19:21.090Z,47.06
2023-04-02T13:21:48.188Z,47.11
2023-04-02T13:24:18.455Z,47.21
2023-04-02T13:26:45.384Z,47.01
2023-04-02T13:29:20.329Z,47.10
2023-04-02T13:31:46.806Z,47.16
2023-04-02T13:34:14.881Z,47.01
2023-04-02T13:36:41.358Z,47.02
2023-04-02T13:39:07.849Z,46.93
2023-04-02T13:41:39.593Z,46.98
2023-04-02T13:44:06.187Z,47.05
2023-04-02T13:46:34.576Z,46.88
2023-04-02T13:49:01.587Z,47.02
2023-04-02T13:51:35.875Z,47.04
2023-04-02T13:54:02.628Z,46.78
2023-04-02T13:56:29.168Z,46.90
2023-04-02T13:58:55.669Z,46.86
2023-04-02T14:01:24.552Z,46.76
2023-04-02T14:03:51.644Z,46.65
2023-04-02T14:06:28.239Z,46.74
2023-04-02T14:09:02.786Z,46.88
2023-04-02T14:11:39.535Z,46.83
2023-04-02T14:14:19.380Z,46.74
2023-04-02T14:16:56.688Z,46.82
2023-04-02T14:19:37.793Z,46.77
2023-04-02T14:22:20.632Z,46.75
2023-04-02T14:24:57.682Z,46.82
2023-04-02T14:27:35.337Z,46.64
2023-04-02T14:30:08.322Z,46.64
2023-04-02T14:32:43.975Z,46.76
2023-04-02T14:35:19.089Z,46.75
2023-04-02T14:37:52.924Z,46.73
2023-04-02T14:40:26.977Z,46.77
2023-04-02T14:42:59.760Z,46.66
2023-04-02T14:45:42.507Z,46.78
2023-04-02T14:48:20.187Z,46.71
2023-04-02T14:50:47.484Z,46.58
2023-04-02T14:53:19.906Z,46.78
2023-04-02T14:55:51.071Z,46.63
2023-04-02T14:58:22.064Z,46.49
2023-04-02T15:00:56.502Z,46.51
2023-04-02T15:03:25.361Z,46.52
2023-04-02T15:05:55.301Z,46.48
2023-04-02T15:08:25.969Z,46.59
2023-04-02T15:11:04.271Z,46.66
2023-04-02T15:13:37.338Z,46.63
2023-04-02T15:16:11.716Z,46.60
2023-04-02T15:18:38.533Z,46.59
2023-04-02T15:21:19.884Z,46.40
2023-04-02T15:23:55.351Z,46.44
2023-04-02T15:26:29.661Z,46.45
2023-04-02T15:29:03.832Z,46.59
2023-04-02T15:31:30.789Z,46.26
2023-04-02T15:34:07.947Z,46.45
2023-04-02T15:36:48.018Z,46.31
2023-04-02T15:39:31.457Z,46.44
2023-04-02T15:42:10.501Z,46.15
2023-04-02T15:44:43.338Z,46.28
2023-04-02T15:47:17.975Z,46.27
2023-04-02T15:49:54.535Z,46.32
2023-04-02T15:52:29.743Z,46.18
2023-04-02T15:55:04.503Z,46.08
2023-04-02T15:57:49.779Z,46.11
2023-04-02T16:00:25.453Z,46.21
2023-04-02T16:03:05.174Z,46.10
2023-04-02T16:05:39.453Z,45.93
2023-04-02T16:08:25.557Z,46.23
2023-04-02T16:10:52.635Z,46.21
2023-04-02T16:13:28.951Z,46.00
2023-04-02T16:16:01.686Z,46.04
2023-04-02T16:18:38.081Z,46.03
2023-04-02T16:21:04.725Z,45.90
2023-04-02T16:23:34.377Z,46.04
2023-04-02T16:26:09.687Z,46.01
2023-04-02T16:28:46.288Z,45.91
2023-04-02T16:31:19.532Z,45.91
2023-04-02T16:33:55.852Z,46.07
2023-04-02T16:36:35.008Z,46.04
2023-04-02T16:39:08.734Z,46.00
2023-04-02T16:41:51.771Z,45.90
2023-04-02T16:44:30.689Z,45.91
2023-04-02T16:47:09.150Z,45.59
2023-04-02T16:49:43.283Z,45.95
2023-04-02T16:52:22.582Z,45.74
2023-04-02T16:55:02.528Z,45.78
2023-04-02T16:57:39.011Z,45.89
2023-04-02T17:00:19.787Z,45.73
2023-04-02T17:03:00.846Z,45.57
2023-04-02T17:05:30.688Z,45.91
2023-04-02T17:08:10.995Z,45.68
2023-04-02T17:10:46.116Z,45.57
2023-04-02T17:13:24.078Z,45.72
2023-04-02T17:16:01.467Z,45.45
2023-04-02T17:18:28.027Z,45.50
2023-04-02T17:20:57.169Z,45.54
2023-04-02T17:23:25.934Z,45.33
2023-04-02T17:25:55.892Z,45.74
2023-04-02T17:28:25.223Z,45.52
2023-04-02T17:30:55.609Z,45.33
2023-04-02T17:33:22.287Z,45.41
2023-04-02T17:35:58.879Z,45.38
2023-04-02T17:38:34.765Z,45.59
2023-04-02T17:41:08.595Z,45.51
2023-04-02T17:43:44.744Z,45.20
2023-04-02T17:46:22.610Z,45.20
2023-04-02T17:48:57.932Z,45.33
2023-04-02T17:51:32.743Z,45.32
2023-04-02T17:54:12.203Z,45.27
2023-04-02T17:56:53.277Z,45.25
2023-04-02T17:59:31.650Z,45.25
2023-04-02T18:02:17.293Z,45.10
2023-04-02T18:04:53.226Z,45.33
2023-04-02T18:07:30.748Z,45.33
2023-04-02T18:10:03.152Z,45.06
2023-04-02T18:12:44.650Z,44.94
2023-04-02T18:15:35.097Z,45.19
2023-04-02T18:18:18.111Z,45.31
2023-04-02T18:20:56.799Z,45.26
2023-04-02T18:23:38.827Z,45.03
2023-04-02T18:26:12.948Z,45.05
2023-04-02T18:28:53.506Z,45.13
2023-04-02T18:31:29.481Z,44.98
2023-04-02T18:34:17.711Z,44.95
2023-04-02T18:36:56.152Z,45.22
2023-04-02T18:39:35.852Z,45.07
2023-04-02T18:42:09.626Z,44.70
2023-04-02T18:44:51.876Z,45.11
2023-04-02T18:47:25.287Z,44.99
2023-04-02T18:50:04.973Z,44.85
2023-04-02T18:52:31.453Z,45.00
2023-04-02T18:55:05.612Z,44.87
2023-04-02T18:57:35.796Z,44.78
2023-04-02T19:00:04.813Z,45.05
2023-04-02T19:02:41.533Z,44.74
2023-04-02T19:05:22.311Z,44.88
2023-04-02T19:07:52.095Z,45.04
2023-04-02T19:10:28.849Z,44.83
2023-04-02T19:12:55.337Z,44.93
2023-04-02T19:15:27.391Z,44.89
2023-04-02T19:18:03.184Z,44.91
2023-04-02T19:20:40.422Z,44.83
2023-04-02T19:23:23.177Z,44.85
2023-04-02T19:25:59.721Z,45.08
2023-04-02T19:28:32.134Z,44.73
2023-04-02T19:31:10.937Z,44.61
2023-04-02T19:33:45.155Z,44.88
2023-04-02T19:36:35.227Z,44.70
2023-04-02T19:39:19.608Z,44.90
2023-04-02T19:41:49.797Z,44.74
2023-04-02T19:44:17.803Z,44.88
2023-04-02T19:46:45.208Z,44.74
2023-04-02T19:49:14.706Z,44.84
2023-04-02T19:51:42.493Z,45.04
2023-04-02T19:54:09.722Z,44.94
2023-04-02T19:56:36.193Z,44.82
2023-04-02T19:59:16.763Z,44.70
2023-04-02T20:01:44.375Z,44.83
2023-04-02T20:04:11.016Z,44.79
2023-04-02T20:06:37.631Z,44.70
2023-04-02T20:09:05.460Z,44.71
2023-04-02T20:11:34.101Z,44.77
2023-04-02T20:14:00.532Z,44.65
2023-04-02T20:16:27.234Z,44.49
2023-04-02T20:18:53.756Z,44.68
2023-04-02T20:21:20.353Z,44.60
2023-04-02T20:23:46.972Z,44.65
2023-04-02T20:26:14.764Z,44.65
2023-04-02T20:28:41.243Z,44.50
2023-04-02T20:31:10.080Z,44.44
2023-04-02T20:33:36.973Z,44.58
2023-04-02T20:36:06.521Z,44.43
2023-04-02T20:38:33.285Z,44.44
2023-04-02T20:41:00.329Z,44.40
2023-04-02T20:43:28.673Z,44.40
2023-04-02T20:45:55.995Z,44.48
2023-04-02T20:48:22.870Z,44.24
2023-04-02T20:50:49.598Z,44.22
2023-04-02T20:53:16.266Z,44.49
2023-04-02T20:55:42.936Z,44.43
2023-04-02T20:58:09.411Z,44.52
2023-04-02T21:00:37.668Z,44.33
2023-04-02T21:03:04.309Z,44.36
2023-04-02T21:05:30.848Z,44.35
2023-04-02T21:07:57.554Z,44.05
2023-04-02T21:10:24.153Z,44.36
2023-04-02T21:12:50.634Z,44.21
2023-04-02T21:15:17.328Z,44.29
2023-04-02T21:17:45.133Z,44.17
2023-04-02T21:20:12.685Z,43.86
2023-04-02T21:22:39.277Z,44.34
2023-04-02T21:25:06.357Z,44.14
2023-04-02T21:27:32.839Z,44.22
2023-04-02T21:29:59.334Z,44.27
2023-04-02T21:32:25.877Z,44.01
2023-04-02T21:34:53.700Z,44.03
2023-04-02T21:37:20.312Z,43.98
2023-04-02T21:39:46.921Z,44.09
2023-04-02T21:42:13.378Z,44.04
2023-04-02T21:44:39.830Z,44.12
2023-04-02T21:47:06.413Z,43.97
2023-04-02T21:49:33.083Z,44.14
2023-04-02T21:52:00.861Z,43.93
2023-04-02T21:54:27.407Z,43.86
2023-04-02T21:56:54.034Z,43.90
2023-04-02T21:59:20.581Z,43.86
2023-04-02T22:01:49.322Z,44.02
2023-04-02T22:04:18.182Z,43.91
2023-04-02T22:06:45.723Z,44.01
2023-04-02T22:09:15.961Z,43.70
2023-04-02T22:11:45.233Z,43.81
2023-04-02T22:14:12.120Z,43.69
2023-04-02T22:16:39.462Z,43.83
2023-04-02T22:19:08.439Z,43.95
2023-04-02T22:21:35.931Z,43.78
2023-04-02T22:24:04.419Z,43.66
2023-04-02T22:26:33.707Z,43.75
2023-04-02T22:29:00.810Z,43.67
2023-04-02T22:31:29.391Z,43.97
2023-04-02T22:33:57.559Z,43.95
2023-04-02T22:36:25.137Z,43.40
2023-04-02T22:38:51.783Z,43.55
2023-04-02T22:41:20.343Z,43.59
2023-04-02T22:43:49.718Z,43.50
2023-04-02T22:46:18.102Z,43.68
2023-04-02T22:48:46.013Z,43.50
2023-04-02T22:51:14.926Z,43.78
2023-04-02T22:53:41.890Z,43.54
2023-04-02T22:56:09.766Z,43.70
2023-04-02T22:58:37.459Z,43.58
2023-04-02T23:01:07.037Z,43.73
2023-04-02T23:03:33.543Z,43.42
2023-04-02T23:06:01.754Z,43.34
2023-04-02T23:08:28.358Z,43.43
2023-04-02T23:11:01.772Z,43.42
2023-04-02T23:13:28.419Z,43.15
2023-04-02T23:15:55.091Z,43.30
2023-04-02T23:18:22.899Z,43.19
2023-04-02T23:20:49.352Z,43.26
2023-04-02T23:23:15.869Z,43.25
2023-04-02T23:25:42.301Z,43.47
2023-04-02T23:28:10.286Z,43.34
2023-04-02T23:30:36.922Z,43.17
2023-04-02T23:33:04.841Z,43.05
2023-04-02T23:35:32.946Z,43.16
2023-04-02T23:37:59.477Z,43.25
2023-04-02T23:40:25.931Z,43.01
2023-04-02T23:42:52.400Z,43.09
2023-04-02T23:45:18.890Z,43.20
2023-04-02T23:47:45.444Z,42.85
2023-04-02T23:50:11.942Z,42.98
2023-04-02T23:52:39.765Z,43.10
2023-04-02T23:55:06.491Z,43.02
2023-04-02T23:57:33.008Z,42.95
2023-04-02T23:59:59.511Z,42.95
